Time;durP1;ratioP1;P1;durP2;ratioP2;P2;SDS_P1;SDS_P2;PMS_P1;PMS_P2;Temp;Humidity;BMP_temperature;BMP_pressure;BME280_temperature;BME280_humidity;BME280_pressure;Samples;Min_cycle;Max_cycle;Signal;HPM_P1;HPM_P2
2022/08/24 00:01:06;;;;;;;8.38;3.63;;;18.90;99.90;19.00;100920.00;;;;4895616;28;93781;-60
2022/08/24 00:03:34;;;;;;;3.85;3.38;;;18.90;99.90;19.00;100924.00;;;;4896645;28;92888;-59
2022/08/24 00:06:00;;;;;;;3.95;2.80;;;18.90;99.90;19.10;100924.00;;;;4896343;28;92859;-60
2022/08/24 00:08:26;;;;;;;2.50;2.15;;;19.00;99.90;19.10;100923.00;;;;4897096;28;93088;-60
2022/08/24 00:10:52;;;;;;;5.82;3.33;;;18.90;99.90;19.10;100928.00;;;;4897081;28;93048;-60
2022/08/24 00:13:18;;;;;;;4.00;3.22;;;18.90;99.90;19.10;100922.00;;;;4895311;28;121153;-60
2022/08/24 00:15:44;;;;;;;7.55;3.95;;;18.90;99.90;19.10;100935.00;;;;4896499;28;93513;-60
2022/08/24 00:18:11;;;;;;;5.30;4.13;;;19.00;99.90;19.10;100929.00;;;;4896325;28;92422;-60
2022/08/24 00:20:38;;;;;;;6.18;4.55;;;19.00;99.90;19.10;100932.00;;;;4896590;28;92854;-59
2022/08/24 00:23:04;;;;;;;4.05;3.67;;;18.90;99.90;19.10;100930.00;;;;4895504;28;93853;-60
2022/08/24 00:25:31;;;;;;;5.30;3.22;;;18.90;99.90;19.00;100940.00;;;;4896333;28;94226;-60
2022/08/24 00:27:57;;;;;;;3.95;3.50;;;18.90;99.90;19.00;100934.00;;;;4895881;28;100375;-59
2022/08/24 00:30:23;;;;;;;2.53;2.33;;;18.90;99.90;18.90;100936.00;;;;4895493;28;98242;-59
2022/08/24 00:32:50;;;;;;;3.28;3.05;;;18.80;99.90;18.90;100930.00;;;;4895892;28;96092;-60
2022/08/24 00:35:18;;;;;;;9.70;2.63;;;18.80;99.90;18.80;100927.00;;;;4896086;28;92885;-60
2022/08/24 00:37:47;;;;;;;3.70;2.60;;;18.80;99.90;18.80;100924.00;;;;4891562;28;93044;-56
2022/08/24 00:40:32;;;;;;;3.58;3.03;;;18.70;99.90;18.70;100931.00;;;;4895249;28;92951;-59
2022/08/24 00:43:02;;;;;;;3.00;2.65;;;18.70;99.90;18.70;100927.00;;;;4894109;28;93464;-59
2022/08/24 00:45:29;;;;;;;2.70;2.10;;;18.60;99.90;18.60;100929.00;;;;4895851;28;93188;-60
2022/08/24 00:48:00;;;;;;;3.42;1.80;;;18.50;99.90;18.60;100932.00;;;;4893658;28;92823;-59
2022/08/24 00:50:46;;;;;;;3.55;2.78;;;18.50;99.90;18.50;100934.00;;;;4895204;28;99934;-60
2022/08/24 00:53:27;;;;;;;2.97;2.50;;;18.40;99.90;18.50;100931.00;;;;4893876;28;93128;-60
2022/08/24 00:56:03;;;;;;;4.65;4.15;;;18.40;99.90;18.50;100928.00;;;;4892699;28;94461;-60
2022/08/24 00:58:38;;;;;;;3.70;2.58;;;18.40;99.90;18.50;100928.00;;;;4890771;28;93132;-60
2022/08/24 01:01:07;;;;;;;5.80;4.75;;;18.40;99.90;18.60;100929.00;;;;4890173;28;96601;-58
2022/08/24 01:03:35;;;;;;;3.45;3.15;;;18.40;99.90;18.60;100927.00;;;;4891013;28;98916;-60
2022/08/24 01:06:01;;;;;;;2.53;2.33;;;18.50;99.90;18.60;100925.00;;;;4893202;28;111877;-59
2022/08/24 01:08:27;;;;;;;2.53;2.28;;;18.50;99.90;18.60;100926.00;;;;4895066;28;110692;-60
2022/08/24 01:11:00;;;;;;;3.05;2.75;;;18.50;99.90;18.60;100923.00;;;;4895015;28;109101;-59
2022/08/24 01:13:27;;;;;;;6.35;4.63;;;18.50;99.90;18.60;100917.00;;;;4895452;28;93035;-59
2022/08/24 01:16:04;;;;;;;4.10;2.85;;;18.50;99.90;18.60;100925.00;;;;4892636;28;94070;-60
2022/08/24 01:18:48;;;;;;;2.88;2.67;;;18.50;99.90;18.60;100925.00;;;;4885726;28;100300;-59
2022/08/24 01:21:23;;;;;;;4.30;3.05;;;18.50;99.90;18.60;100927.00;;;;4893927;28;92947;-59
2022/08/24 01:23:54;;;;;;;4.80;3.15;;;18.50;99.90;18.60;100937.00;;;;4895183;28;105726;-59
2022/08/24 01:26:36;;;;;;;2.75;2.50;;;18.50;99.90;18.60;100922.00;;;;4894765;28;93795;-60
2022/08/24 01:29:13;;;;;;;3.05;2.78;;;18.50;99.90;18.60;100930.00;;;;4891359;28;92898;-60
2022/08/24 01:31:39;;;;;;;3.67;2.78;;;18.50;99.90;18.60;100921.00;;;;4905602;28;98391;-60
2022/08/24 01:34:05;;;;;;;3.08;2.38;;;18.50;99.90;18.60;100928.00;;;;4893178;28;103196;-60
2022/08/24 01:36:55;;;;;;;2.83;1.70;;;18.50;99.90;18.60;100924.00;;;;4897115;28;93185;-58
2022/08/24 01:39:38;;;;;;;4.10;2.83;;;18.50;99.90;18.50;100922.00;;;;4892763;28;92967;-60
2022/08/24 01:42:04;;;;;;;2.63;2.38;;;18.40;99.90;18.50;100922.00;;;;4877771;28;94513;-60
2022/08/24 01:44:33;;;;;;;4.03;2.95;;;18.40;99.90;18.40;100915.00;;;;4894468;28;111153;-59
2022/08/24 01:47:01;;;;;;;2.78;2.58;;;18.30;99.90;18.40;100915.00;;;;4894205;28;114700;-59
2022/08/24 01:49:31;;;;;;;6.43;3.10;;;18.30;99.90;18.30;100918.00;;;;4893767;28;93038;-60
2022/08/24 01:51:57;;;;;;;3.00;2.47;;;18.20;99.90;18.30;100903.00;;;;4895369;28;92703;-60
2022/08/24 01:54:24;;;;;;;2.38;2.17;;;18.10;99.90;18.20;100899.00;;;;4894891;28;94148;-61
2022/08/24 01:56:50;;;;;;;2.67;2.47;;;18.10;99.90;18.10;100909.00;;;;4894382;28;92862;-60
2022/08/24 01:59:18;;;;;;;5.80;2.55;;;18.00;99.90;18.10;100913.00;;;;4894221;28;92064;-60
2022/08/24 02:01:48;;;;;;;2.40;2.20;;;18.00;99.90;18.00;100921.00;;;;4895013;28;92876;-60
2022/08/24 02:04:14;;;;;;;2.78;2.50;;;17.90;99.90;17.90;100915.00;;;;4893158;28;93307;-58
2022/08/24 02:06:43;;;;;;;2.65;2.20;;;17.90;99.90;17.90;100911.00;;;;4892863;28;122661;-58
2022/08/24 02:09:09;;;;;;;3.65;3.33;;;17.80;99.90;17.80;100917.00;;;;4895005;28;92874;-60
2022/08/24 02:11:36;;;;;;;2.58;2.38;;;17.80;99.90;17.80;100908.00;;;;4894104;28;105887;-59
2022/08/24 02:14:02;;;;;;;2.65;2.30;;;17.70;99.90;17.70;100902.00;;;;4894512;28;102522;-59
2022/08/24 02:16:28;;;;;;;2.75;2.08;;;17.60;99.90;17.70;100904.00;;;;4895251;28;94134;-58
2022/08/24 02:18:55;;;;;;;3.17;2.30;;;17.60;99.90;17.60;100899.00;;;;4894386;28;105149;-60
2022/08/24 02:21:21;;;;;;;3.90;2.53;;;17.60;99.90;17.50;100901.00;;;;4892618;28;94383;-60
2022/08/24 02:23:47;;;;;;;3.47;2.30;;;17.50;99.90;17.50;100912.00;;;;4894814;28;92972;-60
2022/08/24 02:26:13;;;;;;;2.47;2.28;;;17.40;99.90;17.50;100905.00;;;;4893605;28;93047;-62
2022/08/24 02:28:39;;;;;;;2.92;2.40;;;17.40;99.90;17.40;100905.00;;;;4894360;28;95288;-60
2022/08/24 02:31:09;;;;;;;4.03;2.72;;;17.30;99.90;17.40;100905.00;;;;4902629;28;93902;-59
2022/08/24 02:33:37;;;;;;;2.65;2.05;;;17.30;99.90;17.30;100914.00;;;;4894461;28;93197;-60
2022/08/24 02:36:04;;;;;;;2.83;2.50;;;17.30;99.90;17.30;100917.00;;;;4893897;28;93060;-59
2022/08/24 02:38:31;;;;;;;2.63;2.30;;;17.20;99.90;17.30;100916.00;;;;4894267;28;102652;-59
2022/08/24 02:40:57;;;;;;;2.95;2.40;;;17.20;99.90;17.20;100905.00;;;;4895376;28;92919;-60
2022/08/24 02:43:23;;;;;;;3.47;2.25;;;17.10;99.90;17.20;100899.00;;;;4893033;28;113547;-60
2022/08/24 02:49:23;;;;;;;4.15;3.22;;;17.00;99.90;17.00;100910.00;;;;4891331;28;92296;-60
2022/08/24 02:51:49;;;;;;;9.80;2.58;;;17.00;99.90;17.00;100910.00;;;;4894309;28;92804;-60
2022/08/24 02:54:16;;;;;;;3.80;2.63;;;16.90;99.90;17.00;100910.00;;;;4893997;28;94068;-59
2022/08/24 02:56:43;;;;;;;3.00;2.70;;;16.90;99.90;17.00;100913.00;;;;4893187;28;94019;-60
2022/08/24 02:59:09;;;;;;;4.43;3.03;;;16.90;99.90;17.00;100920.00;;;;4894051;28;92921;-59
2022/08/24 03:01:34;;;;;;;3.50;2.70;;;16.90;99.90;16.90;100916.00;;;;4892788;28;108712;-60
2022/08/24 03:04:00;;;;;;;4.72;2.42;;;16.80;99.90;16.90;100927.00;;;;4893163;28;122929;-59
2022/08/24 03:06:26;;;;;;;4.80;2.97;;;16.80;99.90;16.90;100926.00;;;;4889485;28;114410;-60
2022/08/24 03:08:52;;;;;;;3.90;2.85;;;16.80;99.90;16.80;100925.00;;;;4893099;28;110505;-59
2022/08/24 03:11:17;;;;;;;3.20;2.90;;;16.70;99.90;16.80;100923.00;;;;4892419;28;108260;-59
2022/08/24 03:13:43;;;;;;;4.18;2.92;;;16.80;99.90;16.80;100924.00;;;;4893697;28;122344;-59
2022/08/24 03:16:09;;;;;;;3.47;3.17;;;16.70;99.90;16.80;100915.00;;;;4893641;28;92776;-59
2022/08/24 03:18:35;;;;;;;2.58;2.33;;;16.70;99.90;16.70;100914.00;;;;4893427;28;110402;-59
2022/08/24 03:21:02;;;;;;;2.53;2.10;;;16.60;99.90;16.70;100930.00;;;;4891764;28;94165;-59
2022/08/24 03:23:28;;;;;;;3.08;2.35;;;16.60;99.90;16.70;100931.00;;;;4893477;28;93361;-59
2022/08/24 03:25:54;;;;;;;4.00;2.83;;;16.60;99.90;16.70;100943.00;;;;4893230;28;93507;-59
2022/08/24 03:28:22;;;;;;;4.47;2.67;;;16.60;99.90;16.60;100944.00;;;;4893419;28;93056;-58
2022/08/24 03:30:49;;;;;;;3.28;2.53;;;16.60;99.90;16.60;100931.00;;;;4894456;28;92766;-59
2022/08/24 03:33:15;;;;;;;2.67;2.47;;;16.50;99.90;16.60;100935.00;;;;4893057;28;94267;-58
2022/08/24 03:35:41;;;;;;;4.65;3.47;;;16.50;99.90;16.60;100944.00;;;;4892932;28;95182;-59
2022/08/24 03:38:07;;;;;;;4.30;3.47;;;16.50;99.90;16.50;100937.00;;;;4894068;28;92257;-60
2022/08/24 03:40:33;;;;;;;4.55;3.78;;;16.50;99.90;16.50;100943.00;;;;4893944;28;92987;-59
2022/08/24 03:43:00;;;;;;;4.88;3.28;;;16.40;99.90;16.50;100941.00;;;;4892053;28;122514;-59
2022/08/24 03:45:27;;;;;;;3.20;2.90;;;16.40;99.90;16.50;100945.00;;;;4893098;28;93757;-59
2022/08/24 03:47:53;;;;;;;4.70;3.42;;;16.40;99.90;16.40;100937.00;;;;4892942;28;102186;-60
2022/08/24 03:50:20;;;;;;;5.57;3.80;;;16.40;99.90;16.40;100948.00;;;;4892934;28;100747;-59
2022/08/24 03:52:47;;;;;;;3.55;3.20;;;16.40;99.90;16.40;100954.00;;;;4892287;28;93977;-59
2022/08/24 03:55:13;;;;;;;5.32;4.68;;;16.40;99.90;16.40;100957.00;;;;4889887;28;93046;-60
2022/08/24 03:57:39;;;;;;;6.85;4.15;;;16.30;99.90;16.40;100962.00;;;;4891992;28;92974;-60
2022/08/24 04:00:09;;;;;;;3.78;3.47;;;16.30;99.90;16.40;100958.00;;;;4893289;28;92875;-59
2022/08/24 04:02:35;;;;;;;3.90;2.80;;;16.30;99.90;16.30;100966.00;;;;4892825;28;93273;-61
2022/08/24 04:05:00;;;;;;;4.25;3.40;;;16.30;99.90;16.30;100956.00;;;;4892704;28;92869;-60
2022/08/24 04:07:26;;;;;;;2.92;2.72;;;16.30;99.90;16.30;100963.00;;;;4892074;28;109252;-62
2022/08/24 04:09:52;;;;;;;2.63;2.42;;;16.20;99.90;16.30;100961.00;;;;4892858;28;93905;-61
2022/08/24 04:12:18;;;;;;;2.58;2.38;;;16.20;99.90;16.30;100955.00;;;;4891724;28;113292;-62
2022/08/24 04:14:43;;;;;;;1.90;1.80;;;16.20;99.90;16.20;100952.00;;;;4890111;28;110243;-59
2022/08/24 04:17:11;;;;;;;2.88;2.20;;;16.20;99.90;16.20;100960.00;;;;4893336;28;93115;-62
2022/08/24 04:19:56;;;;;;;4.07;2.65;;;16.20;99.90;16.20;100954.00;;;;4893066;28;92785;-62
2022/08/24 04:22:32;;;;;;;5.47;3.90;;;16.20;99.90;16.20;100959.00;;;;4889488;28;93220;-61
2022/08/24 04:24:58;;;;;;;3.63;3.30;;;16.20;99.90;16.20;100965.00;;;;4893963;28;92864;-61
2022/08/24 04:27:24;;;;;;;4.38;3.30;;;16.10;99.90;16.20;100955.00;;;;4895767;28;109193;-60
2022/08/24 04:29:50;;;;;;;3.40;3.10;;;16.10;99.90;16.20;100965.00;;;;4895064;28;108711;-60
2022/08/24 04:32:16;;;;;;;5.57;3.17;;;16.20;99.90;16.20;100955.00;;;;4895361;28;93281;-61
2022/08/24 04:34:43;;;;;;;3.60;2.88;;;16.10;99.90;16.20;100958.00;;;;4898553;28;95122;-60
2022/08/24 04:37:09;;;;;;;2.60;2.40;;;16.10;99.90;16.20;100962.00;;;;4892431;28;93655;-62
2022/08/24 04:39:35;;;;;;;4.32;3.92;;;16.20;99.90;16.20;100964.00;;;;4892791;28;92877;-61
2022/08/24 04:42:01;;;;;;;6.63;5.00;;;16.20;99.90;16.20;100968.00;;;;4890953;28;119994;-62
2022/08/24 04:44:26;;;;;;;5.72;4.85;;;16.20;99.90;16.30;100970.00;;;;4891098;28;121891;-62
2022/08/24 04:46:52;;;;;;;3.65;3.15;;;16.20;99.90;16.30;100975.00;;;;4892408;28;92866;-62
2022/08/24 04:49:18;;;;;;;4.28;3.08;;;16.20;99.90;16.30;100979.00;;;;4891901;28;109215;-60
2022/08/24 04:51:43;;;;;;;5.10;4.00;;;16.20;99.90;16.30;100975.00;;;;4890639;28;123128;-61
2022/08/24 04:54:09;;;;;;;4.85;3.47;;;16.20;99.90;16.40;100973.00;;;;4890855;28;121101;-61
2022/08/24 04:56:35;;;;;;;3.90;3.53;;;16.30;99.90;16.40;100973.00;;;;4890800;28;103741;-62
2022/08/24 04:59:03;;;;;;;3.83;3.45;;;16.30;99.90;16.50;100979.00;;;;4889951;28;109625;-62
2022/08/24 05:01:31;;;;;;;3.67;3.08;;;16.40;99.90;16.60;100977.00;;;;4892021;28;93027;-61
2022/08/24 05:03:57;;;;;;;4.32;3.40;;;16.50;99.90;16.70;100978.00;;;;4891427;28;93897;-62
2022/08/24 05:06:27;;;;;;;4.47;3.17;;;16.60;99.90;16.80;100972.00;;;;4891187;28;101461;-62
2022/08/24 05:08:54;;;;;;;3.42;3.03;;;16.70;99.90;16.90;100987.00;;;;4891864;28;92832;-62
2022/08/24 05:11:22;;;;;;;4.10;2.90;;;16.80;99.90;17.00;100983.00;;;;4891198;28;93913;-62
2022/08/24 05:13:51;;;;;;;4.13;3.13;;;16.90;99.90;17.20;100992.00;;;;4892017;28;93864;-61
2022/08/24 05:16:17;;;;;;;3.28;2.95;;;17.00;99.90;17.30;100986.00;;;;4891935;28;92352;-61
2022/08/24 05:18:44;;;;;;;3.28;2.85;;;17.10;99.90;17.40;100988.00;;;;4891027;28;93192;-61
2022/08/24 05:21:14;;;;;;;4.05;2.78;;;17.20;99.90;17.60;100990.00;;;;4894252;28;102806;-61
2022/08/24 05:23:40;;;;;;;4.32;3.38;;;17.40;99.90;17.70;100992.00;;;;4894948;28;93925;-60
2022/08/24 05:26:19;;;;;;;4.53;3.15;;;17.50;99.90;17.90;100988.00;;;;4895495;28;93372;-61
2022/08/24 05:28:46;;;;;;;3.78;2.95;;;17.70;99.90;18.00;100991.00;;;;4894253;28;93704;-61
2022/08/24 05:31:21;;;;;;;3.35;3.05;;;17.80;99.90;18.20;100989.00;;;;4894402;28;93623;-60
2022/08/24 05:33:48;;;;;;;3.25;2.95;;;18.00;99.90;18.40;100994.00;;;;4894597;28;92966;-60
2022/08/24 05:36:24;;;;;;;3.60;3.25;;;18.20;99.90;18.50;100994.00;;;;4893931;28;102388;-60
2022/08/24 05:38:54;;;;;;;3.95;3.60;;;18.40;99.90;18.70;100991.00;;;;4895526;28;93034;-61
2022/08/24 05:41:21;;;;;;;3.83;2.97;;;18.50;99.90;18.90;100991.00;;;;4892807;28;92970;-60
2022/08/24 05:43:47;;;;;;;4.88;3.13;;;18.60;99.90;19.10;100991.00;;;;4894056;28;93202;-61
2022/08/24 05:46:14;;;;;;;3.25;2.90;;;18.80;99.90;19.30;100995.00;;;;4894768;28;92856;-60
2022/08/24 05:48:40;;;;;;;4.75;2.92;;;19.00;99.90;19.50;100993.00;;;;4895209;28;93801;-61
2022/08/24 05:51:08;;;;;;;4.18;3.22;;;19.30;99.90;19.60;101001.00;;;;4894121;28;93906;-61
2022/08/24 05:53:35;;;;;;;4.53;2.90;;;19.40;99.90;19.80;100999.00;;;;4895208;28;93062;-61
2022/08/24 05:56:06;;;;;;;3.47;2.53;;;19.60;99.90;19.90;100999.00;;;;4895333;28;93124;-61
2022/08/24 05:58:32;;;;;;;3.95;2.88;;;19.70;99.90;20.00;101010.00;;;;4895060;28;92819;-61
2022/08/24 06:01:04;;;;;;;3.42;3.13;;;19.80;99.90;20.20;101011.00;;;;4894487;28;94185;-61
2022/08/24 06:03:30;;;;;;;5.03;3.72;;;20.00;99.90;20.20;101016.00;;;;4892053;28;93305;-61
2022/08/24 06:05:56;;;;;;;4.22;2.85;;;20.10;99.90;20.40;101011.00;;;;4894275;28;109802;-61
2022/08/24 06:08:22;;;;;;;3.17;2.88;;;20.10;99.90;20.50;101014.00;;;;4894731;28;93020;-61
2022/08/24 06:10:48;;;;;;;5.65;3.95;;;20.30;99.90;20.70;101014.00;;;;4894065;28;93894;-61
2022/08/24 06:13:15;;;;;;;6.03;3.05;;;20.40;99.90;20.90;101004.00;;;;4892910;28;122946;-63
2022/08/24 06:15:41;;;;;;;8.93;3.75;;;20.70;99.90;21.10;101003.00;;;;4895152;28;93498;-61
2022/08/24 06:18:07;;;;;;;5.80;3.30;;;20.80;99.90;21.30;101015.00;;;;4894208;28;97750;-62
2022/08/24 06:20:39;;;;;;;3.88;2.80;;;21.10;99.90;21.60;101016.00;;;;4893673;28;117857;-61
2022/08/24 06:23:05;;;;;;;2.92;2.65;;;21.30;99.90;21.80;101010.00;;;;4894220;28;92952;-61
2022/08/24 06:28:15;;;;;;;6.57;3.53;;;21.70;99.90;22.20;101017.00;;;;4893797;28;92740;-61
2022/08/24 06:30:41;;;;;;;5.18;3.15;;;22.00;99.90;22.50;101018.00;;;;4894323;28;93437;-62
2022/08/24 06:33:08;;;;;;;3.65;3.03;;;22.20;99.90;22.70;101019.00;;;;4891484;28;93098;-61
2022/08/24 06:35:34;;;;;;;16.15;3.35;;;22.40;99.90;22.90;101027.00;;;;4894096;28;102608;-62
2022/08/24 06:38:00;;;;;;;2.55;2.33;;;22.70;99.90;23.20;101029.00;;;;4892858;28;103786;-61
2022/08/24 06:40:26;;;;;;;3.22;2.40;;;22.90;99.90;23.40;101028.00;;;;4894066;28;94388;-61
2022/08/24 06:42:52;;;;;;;3.50;3.20;;;23.10;99.90;23.60;101029.00;;;;4893778;28;93996;-61
2022/08/24 06:45:18;;;;;;;3.78;3.47;;;23.40;99.90;23.80;101025.00;;;;4894024;28;92833;-62
2022/08/24 06:47:44;;;;;;;3.40;2.50;;;23.50;99.90;23.90;101026.00;;;;4893191;28;100469;-61
2022/08/24 06:50:10;;;;;;;2.92;2.35;;;23.70;99.90;24.00;101026.00;;;;4893721;28;93643;-62
2022/08/24 06:52:38;;;;;;;4.95;3.40;;;23.80;99.90;24.20;101024.00;;;;4893125;28;113329;-62
2022/08/24 06:55:04;;;;;;;3.90;2.85;;;24.00;99.90;24.40;101023.00;;;;4894512;28;92214;-61
2022/08/24 06:57:30;;;;;;;3.80;2.17;;;24.10;99.90;24.70;101033.00;;;;4891269;28;92859;-61
2022/08/24 06:59:56;;;;;;;2.90;2.58;;;24.40;99.90;24.90;101029.00;;;;4892883;28;114756;-61
2022/08/24 07:02:22;;;;;;;2.83;2.22;;;24.60;99.90;25.10;101043.00;;;;4892748;28;121585;-61
2022/08/24 07:04:48;;;;;;;6.40;3.50;;;24.80;99.90;25.30;101038.00;;;;4894707;28;92955;-61
2022/08/24 07:07:13;;;;;;;7.60;3.13;;;25.10;99.90;25.40;101037.00;;;;4894017;28;92795;-62
2022/08/24 07:09:39;;;;;;;3.75;2.55;;;25.20;99.90;25.40;101038.00;;;;4887641;28;121379;-61
2022/08/24 07:12:05;;;;;;;5.45;2.60;;;25.20;99.90;25.50;101036.00;;;;4892512;28;121313;-61
2022/08/24 07:14:31;;;;;;;3.95;2.10;;;25.30;99.90;25.70;101042.00;;;;4894074;28;92894;-60
2022/08/24 07:16:56;;;;;;;2.53;2.17;;;25.40;99.90;25.90;101040.00;;;;4893610;28;108988;-62
2022/08/24 07:19:24;;;;;;;2.83;2.33;;;25.60;99.90;26.10;101043.00;;;;4893106;28;121021;-61
2022/08/24 07:21:50;;;;;;;5.40;2.38;;;25.80;99.90;26.40;101037.00;;;;4893010;28;92761;-61
2022/08/24 07:24:15;;;;;;;2.25;2.05;;;26.10;99.90;26.50;101034.00;;;;4893750;28;92988;-62
2022/08/24 07:26:41;;;;;;;5.95;3.25;;;26.20;99.90;26.70;101049.00;;;;4892416;28;108871;-61
2022/08/24 07:29:14;;;;;;;5.95;2.72;;;26.40;99.90;26.90;101051.00;;;;4891715;28;122911;-60
2022/08/24 07:31:42;;;;;;;3.75;3.03;;;26.50;99.90;27.10;101048.00;;;;4893392;28;93668;-61
2022/08/24 07:34:09;;;;;;;2.00;1.70;;;26.80;99.90;27.30;101050.00;;;;4892178;28;97011;-61
2022/08/24 07:36:36;;;;;;;2.53;1.63;;;27.00;99.90;27.60;101052.00;;;;4893562;28;93041;-60
2022/08/24 07:39:04;;;;;;;2.30;2.00;;;27.30;99.90;27.80;101055.00;;;;4893463;28;93309;-61
2022/08/24 07:41:30;;;;;;;4.43;2.03;;;27.50;99.90;28.10;101054.00;;;;4893496;28;93060;-60
2022/08/24 07:43:57;;;;;;;3.42;1.75;;;27.70;99.90;28.30;101063.00;;;;4893717;28;92237;-61
2022/08/24 07:46:23;;;;;;;6.30;2.75;;;28.00;99.90;28.50;101059.00;;;;4893559;28;92834;-62
2022/08/24 07:48:49;;;;;;;2.70;1.77;;;28.20;99.80;28.70;101058.00;;;;4892720;28;122759;-62
2022/08/24 07:51:18;;;;;;;2.92;2.22;;;28.40;99.20;28.90;101066.00;;;;4891489;28;123515;-62
2022/08/24 07:53:43;;;;;;;8.93;2.03;;;28.50;98.50;29.10;101070.00;;;;4893366;28;92832;-62
2022/08/24 07:56:10;;;;;;;2.72;1.48;;;28.70;97.00;29.10;101072.00;;;;4892578;28;109063;-62
2022/08/24 07:58:36;;;;;;;2.13;1.88;;;28.90;96.30;29.30;101065.00;;;;4895542;28;93708;-62
2022/08/24 08:01:03;;;;;;;1.48;1.38;;;29.00;96.30;29.50;101079.00;;;;4896407;28;93715;-62
2022/08/24 08:03:32;;;;;;;1.92;1.40;;;29.20;95.50;29.70;101071.00;;;;4895583;28;93101;-62
2022/08/24 08:06:02;;;;;;;1.98;1.70;;;29.40;94.90;29.90;101066.00;;;;4897419;28;92860;-62
2022/08/24 08:08:29;;;;;;;2.65;2.05;;;29.60;94.20;30.00;101066.00;;;;4896105;28;106486;-62
2022/08/24 08:10:56;;;;;;;2.22;1.92;;;29.70;93.30;30.20;101074.00;;;;4896332;28;92798;-62
2022/08/24 08:13:21;;;;;;;2.15;1.58;;;29.90;92.70;30.40;101073.00;;;;4896746;28;93177;-62
2022/08/24 08:15:48;;;;;;;2.65;1.75;;;30.10;92.20;30.50;101068.00;;;;4893497;28;93688;-61
2022/08/24 08:18:14;;;;;;;2.08;1.65;;;30.20;90.90;30.50;101072.00;;;;4896420;28;93927;-62
2022/08/24 08:20:41;;;;;;;1.83;1.30;;;30.30;90.00;30.30;101080.00;;;;4896187;28;93336;-62
2022/08/24 08:25:56;;;;;;;2.17;1.45;;;30.00;88.00;29.80;101083.00;;;;4893757;28;92885;-62
2022/08/24 08:28:23;;;;;;;2.25;1.50;;;29.70;88.30;29.60;101088.00;;;;4895300;28;93634;-62
2022/08/24 08:30:49;;;;;;;5.35;1.10;;;29.50;88.50;29.50;101081.00;;;;4896364;28;92917;-62
2022/08/24 08:33:15;;;;;;;1.63;1.23;;;29.30;88.50;29.50;101090.00;;;;4896113;28;92113;-62
2022/08/24 08:35:43;;;;;;;1.05;1.05;;;29.20;88.50;29.50;101085.00;;;;4893733;28;101800;-62
2022/08/24 08:38:09;;;;;;;1.60;1.40;;;29.20;88.30;29.60;101086.00;;;;4895564;28;93779;-62
2022/08/24 08:40:44;;;;;;;1.45;1.27;;;29.30;87.20;29.60;101084.00;;;;4891534;28;113119;-63
2022/08/24 08:43:22;;;;;;;3.65;1.58;;;29.30;86.80;29.60;101092.00;;;;4896217;28;92717;-62
2022/08/24 08:46:14;;;;;;;1.73;1.30;;;29.30;85.80;29.50;101086.00;;;;4896020;28;92942;-62
2022/08/24 08:48:59;;;;;;;2.03;1.80;;;29.20;85.50;29.60;101090.00;;;;4893959;28;102324;-62
2022/08/24 08:51:45;;;;;;;1.90;1.40;;;29.30;85.70;29.60;101100.00;;;;4893576;28;93639;-61
2022/08/24 08:55:03;;;;;;;5.30;1.45;;;29.30;85.40;29.60;101090.00;;;;4894861;28;92890;-62
2022/08/24 08:58:04;;;;;;;1.20;1.10;;;29.30;85.00;29.70;101090.00;;;;4875391;28;93093;-63
2022/08/24 09:01:10;;;;;;;1.40;1.00;;;29.30;84.70;29.70;101085.00;;;;4879695;28;92564;-63
2022/08/24 09:04:11;;;;;;;3.33;2.20;;;29.40;84.40;29.70;101095.00;;;;4883807;28;92978;-63
2022/08/24 09:07:19;;;;;;;1.50;1.40;;;29.40;83.90;29.70;101092.00;;;;4893707;28;93055;-61
2022/08/24 09:10:35;;;;;;;2.10;1.48;;;29.40;83.10;29.80;101086.00;;;;4893896;28;93729;-62
2022/08/24 09:13:47;;;;;;;2.03;1.63;;;29.40;83.10;29.90;101095.00;;;;4862608;28;94066;-62
2022/08/24 09:16:58;;;;;;;1.90;1.35;;;29.50;82.10;30.00;101099.00;;;;4893072;28;93085;-62
2022/08/24 09:19:52;;;;;;;3.60;1.73;;;29.60;81.90;30.10;101093.00;;;;4884409;28;95400;-62
2022/08/24 09:22:20;;;;;;;2.63;1.92;;;29.70;81.20;30.20;101095.00;;;;4886134;28;92763;-61
2022/08/24 09:30:10;;;;;;;2.42;1.88;;;29.90;79.20;30.40;101099.00;;;;5738383;23;92833;-64
2022/08/24 09:33:16;;;;;;;1.33;1.23;;;30.00;78.50;30.60;101093.00;;;;4939858;28;92403;-64
2022/08/24 09:35:50;;;;;;;3.17;1.50;;;30.10;78.00;30.70;101084.00;;;;4951615;28;93315;-65
2022/08/24 09:38:57;;;;;;;3.60;1.70;;;30.20;77.60;30.80;101091.00;;;;4930213;28;93700;-64
2022/08/24 09:41:59;;;;;;;5.97;2.05;;;30.30;77.00;30.80;101087.00;;;;4929705;28;92143;-64
2022/08/24 09:45:03;;;;;;;2.28;1.00;;;30.40;76.40;30.90;101080.00;;;;4904379;28;91962;-64
2022/08/24 09:47:46;;;;;;;1.98;1.63;;;30.40;75.60;31.00;101090.00;;;;4928683;28;92750;-65
2022/08/24 09:51:09;;;;;;;1.35;1.15;;;30.50;74.80;31.00;101084.00;;;;4929813;28;103124;-65
2022/08/24 09:54:07;;;;;;;1.33;1.23;;;30.60;73.60;30.90;101085.00;;;;4915488;28;92772;-64
2022/08/24 09:57:14;;;;;;;1.80;1.30;;;30.50;73.10;30.80;101076.00;;;;4930768;28;92613;-64
2022/08/24 09:59:59;;;;;;;1.80;1.55;;;30.50;72.80;30.80;101076.00;;;;4931229;28;91718;-65
2022/08/24 10:02:58;;;;;;;2.80;1.92;;;30.40;72.60;31.00;101072.00;;;;4929061;28;92841;-65
2022/08/24 10:06:14;;;;;;;3.10;1.70;;;30.50;72.40;31.10;101064.00;;;;4928483;28;92077;-65
2022/08/24 10:09:04;;;;;;;2.75;1.27;;;30.60;71.50;31.00;101076.00;;;;4906331;28;93783;-65
2022/08/24 10:11:45;;;;;;;1.90;1.58;;;30.60;70.60;30.90;101075.00;;;;4927718;28;93775;-65
2022/08/24 10:14:49;;;;;;;1.60;1.40;;;30.50;70.60;30.90;101063.00;;;;4925459;28;92729;-65
2022/08/24 10:17:52;;;;;;;4.90;2.13;;;30.50;70.10;30.90;101064.00;;;;4872781;28;97406;-65
2022/08/24 10:20:38;;;;;;;2.33;1.42;;;30.50;69.70;30.70;101064.00;;;;4891585;28;92686;-65
2022/08/24 10:23:24;;;;;;;3.22;2.08;;;30.40;69.50;30.70;101071.00;;;;4895420;28;103863;-65
2022/08/24 10:26:02;;;;;;;2.05;1.70;;;30.30;69.40;30.60;101067.00;;;;4894602;28;93035;-66
2022/08/24 10:29:20;;;;;;;2.72;1.48;;;30.30;69.30;30.40;101069.00;;;;4895301;28;92071;-65
2022/08/24 10:32:26;;;;;;;1.77;1.55;;;30.10;69.30;30.40;101070.00;;;;4891100;28;93075;-64
2022/08/24 10:35:12;;;;;;;3.88;2.50;;;30.00;69.40;30.30;101064.00;;;;4893958;28;94184;-65
2022/08/24 10:41:53;;;;;;;2.95;2.08;;;29.90;69.60;30.20;101070.00;;;;4889747;28;92866;-64
2022/08/24 10:44:29;;;;;;;2.47;2.10;;;29.80;69.90;30.20;101070.00;;;;4894998;28;93282;-64
2022/08/24 10:47:10;;;;;;;3.60;1.70;;;29.80;70.00;30.10;101069.00;;;;4894154;28;93324;-64
2022/08/24 10:49:36;;;;;;;3.50;1.90;;;29.80;70.20;30.10;101060.00;;;;4894987;28;93155;-64
2022/08/24 10:53:03;;;;;;;3.42;2.30;;;29.70;70.30;30.10;101070.00;;;;4895060;28;92762;-64
2022/08/24 10:55:33;;;;;;;2.38;1.73;;;29.70;70.20;30.00;101065.00;;;;4803478;28;93037;-64
2022/08/24 10:58:33;;;;;;;2.20;2.03;;;29.70;70.10;29.80;101068.00;;;;4833068;28;92082;-64
2022/08/24 11:01:33;;;;;;;4.20;2.15;;;29.50;70.20;29.60;101069.00;;;;4885168;28;92906;-64
2022/08/24 11:04:03;;;;;;;2.47;2.10;;;29.40;70.70;29.40;101073.00;;;;4893009;28;92983;-65
2022/08/24 11:06:40;;;;;;;3.95;2.30;;;29.20;71.00;29.30;101074.00;;;;4893642;28;93888;-66
2022/08/24 11:09:15;;;;;;;5.47;2.13;;;29.00;71.40;29.10;101075.00;;;;4875729;28;93060;-66
2022/08/24 11:11:48;;;;;;;2.47;1.80;;;28.90;71.60;29.10;101066.00;;;;4891589;28;93329;-64
2022/08/24 11:14:29;;;;;;;1.77;1.50;;;28.80;71.90;29.00;101068.00;;;;4894519;28;92765;-65
2022/08/24 11:17:20;;;;;;;1.67;1.58;;;28.70;72.20;28.90;101066.00;;;;4894672;28;92836;-65
2022/08/24 11:19:47;;;;;;;5.20;2.30;;;28.60;72.40;28.90;101062.00;;;;4892763;28;93504;-65
2022/08/24 11:22:36;;;;;;;3.85;1.92;;;28.60;72.30;28.90;101065.00;;;;4892918;28;94094;-65
2022/08/24 11:25:22;;;;;;;2.10;1.90;;;28.60;72.00;28.80;101057.00;;;;4891946;28;92310;-65
2022/08/24 11:27:52;;;;;;;2.28;2.08;;;28.50;71.50;28.70;101057.00;;;;4892843;28;92982;-65